• Join FlightAware (Why Join?)
  • Login
  • US Flag 
08:28PM EDT


 

Airport Tracker/Info


-or-


 

Live Flight TrackerFlight Track Log ✈ UAL3835 ✈ 02-Jan-2014 ✈ KCRW - KORD

Flight Track Log - Related Links

Times and Time Zones

All times are in EST time to prevent confusion due to time zone crossing. See the UAL3835 flight status page for this flight to view local times or setup timezone preferences in your user account.

Time Position Orientation Groundspeed Altitude Reporting Facility
EST Latitude Longitude Course Direction KTS MPH feet Rate Location/Type
10:22AM 38.3717 -81.6494 311° West 200 230 3,000  Level Indianapolis Center
10:23AM 38.4169 -81.6967 321° Northwest 209 241 6,000 2,280 Climbing Indianapolis Center
10:24AM 38.4692 -81.7464 323° Northwest 224 258 7,800 1,860 Climbing Indianapolis Center
10:25AM 38.5275 -81.8019 323° Northwest 254 292 9,900 1,080 Climbing Indianapolis Center
10:26AM 38.5900 -81.8656 322° Northwest 285 328 10,000 780 Climbing Indianapolis Center
10:27AM 38.7765 -82.0564 311° West  Level FlightAware Approximate
10:27AM 38.6600 -81.9442 319° Northwest 328 377 11,600  Level Indianapolis Center
10:28AM 38.7358 -82.0453 314° West 325 374 13,500 1,680 Climbing Indianapolis Center
10:29AM 38.8008 -82.1331 314° West 335 386 15,100 1,500 Climbing Indianapolis Center
10:30AM 38.8661 -82.2183 315° West 333 383 16,600 1,500 Climbing Indianapolis Center
10:31AM 38.9303 -82.3064 313° West 338 389 18,200 1,560 Climbing Indianapolis Center
10:32AM 38.9961 -82.3933 314° West 337 388 19,900 1,500 Climbing Indianapolis Center
10:33AM 39.0608 -82.4817 313° West 339 390 21,300 1,200 Climbing Indianapolis Center
10:34AM 39.1275 -82.5725 313° West 346 398 22,400 1,020 Climbing Indianapolis Center
10:35AM 39.1975 -82.6669 314° West 358 412 23,400 1,200 Climbing Indianapolis Center
10:36AM 39.2669 -82.7611 314° West 362 417 24,900 1,740 Climbing Indianapolis Center
10:37AM 39.3311 -82.8494 313° West 346 398 27,100 2,160 Climbing Indianapolis Center
10:38AM 39.3900 -82.9272 314° West 314 361 29,400 2,280 Climbing Indianapolis Center
10:39AM 39.4531 -83.0156 313° West 286 329 31,700 1,680 Climbing Indianapolis Center
10:40AM 39.5044 -83.0861 313° West 274 315 32,900 1,080 Climbing Indianapolis Center
10:41AM 39.5592 -83.1608 314° West 284 327 33,900 480 Climbing Indianapolis Center
10:42AM 39.6169 -83.2425 313° West 303 349 34,000  Climbing Indianapolis Center
10:43AM 39.6836 -83.3342 313° West 343 395 34,000  Level Indianapolis Center
10:44AM 39.7547 -83.4328 313° West 368 423 34,000  Level Indianapolis Center
10:45AM 39.8281 -83.5353 313° West 379 436 34,000  Level Indianapolis Center
10:46AM 39.9036 -83.6403 313° West 376 433 34,000  Level Indianapolis Center
10:47AM 39.9733 -83.7389 313° West 370 426 34,000  Level Indianapolis Center
10:48AM 40.0433 -83.8375 313° West 370 426 34,000  Level Indianapolis Center
10:49AM 40.1136 -83.9375 313° West 373 429 34,000  Level Indianapolis Center
10:50AM 40.1839 -84.0367 313° West 373 429 34,000  Level Indianapolis Center
10:51AM 40.2528 -84.1339 313° West 368 423 34,000  Level Indianapolis Center
10:52AM 40.3347 -84.2528 312° West 366 421 34,000  Level Indianapolis Center
10:53AM 40.3950 -84.3564 307° West 359 413 34,000  Level Indianapolis Center
10:54AM 40.4558 -84.4583 308° West 357 411 34,000  Level Indianapolis Center
10:55AM 40.5169 -84.5592 309° West 355 409 34,000  Level Indianapolis Center
10:56AM 40.5769 -84.6608 308° West 353 406 34,000  Level Indianapolis Center
10:57AM 40.6386 -84.7647 308° West 359 413 34,000  Level Indianapolis Center
10:58AM 40.7025 -84.8742 308° West 372 428 34,000  Level Indianapolis Center
10:59AM 40.7686 -84.9881 307° West 386 444 34,000  Level Indianapolis Center
11:00AM 40.8347 -85.1008 308° West 390 449 34,000  Level Indianapolis Center
11:01AM 40.9139 -85.2367 308° West 392 451 34,000  Level Indianapolis Center
11:02AM 40.9806 -85.3531 307° West 395 455 34,000  Level Indianapolis Center
11:04AM 41.0486 -85.4689 308° West 400 460 34,000  Level Indianapolis Center
11:05AM 41.1172 -85.5867 308° West 405 466 34,000  Level Indianapolis Center
11:06AM 41.1842 -85.7061 307° West 407 468 34,000  Level Indianapolis Center
11:07AM 41.2539 -85.8267 308° West 411 473 34,000  Level Indianapolis Center
11:08AM 41.3211 -85.9453 307° West 406 467 34,000  Level Indianapolis Center
11:09AM 41.3872 -86.0631 307° West 402 463 34,000  Level Indianapolis Center
11:10AM 41.4797 -86.2261 307° West 395 455 34,000  Level Chicago Center
11:11AM 41.5461 -86.3436 307° West 396 456 34,000  Level Chicago Center
11:12AM 41.6111 -86.4608 307° West 393 452 34,000  Level Chicago Center
11:13AM 41.6769 -86.5783 307° West 394 453 34,000  Level Chicago Center
11:14AM 41.7447 -86.7003 307° West 392 451 34,000  Level Chicago Center
11:15AM 41.8100 -86.8178 307° West 394 453 34,000  Level Chicago Center
11:16AM 41.8742 -86.9350 306° West 394 453 34,000  Level Chicago Center
11:17AM 41.9389 -87.0531 306° West 394 453 34,000 -240 Level Chicago Center
11:18AM 42.0025 -87.1708 306° West 393 452 33,600 -1,080 Descending Chicago Center
11:19AM 42.0792 -87.3111 306° West 387 445 31,800 -1,680 Descending Chicago Center
11:20AM 42.1442 -87.4308 306° West 395 455 30,200 -1,560 Descending Chicago Center
11:21AM 42.2117 -87.5553 306° West 410 472 28,700 -1,260 Descending Chicago Center
11:22AM 42.2778 -87.6789 306° West 411 473 27,700 -1,080 Descending Chicago Center
11:23AM 42.3397 -87.7961 306° West 409 471 26,500 -1,620 Descending Chicago Center
11:24AM 42.4069 -87.9214 306° West 411 473 24,500 -1,980 Descending Chicago Center
11:25AM 42.4703 -88.0422 305° West 402 463 22,500 -2,220 Descending Chicago Center
11:26AM 42.5428 -88.1778 306° West 376 433 20,100 -2,160 Descending Chicago Center
11:27AM 42.6042 -88.2942 306° West 378 435 18,100 -1,860 Descending Chicago Center
11:28AM 42.6628 -88.4064 305° West 370 426 16,400 -1,680 Descending Chicago Center
11:29AM 42.7161 -88.5089 305° West 345 397 14,800 -1,200 Descending Chicago Center
11:30AM 42.7717 -88.6158 305° West 345 397 14,000 -480 Descending Chicago Center
11:31AM 42.8272 -88.7222 305° West 345 397 13,900 -60 Descending Chicago Center
11:32AM 42.8803 -88.8236 306° West 334 384 13,900 -240 Level Chicago Center
11:33AM 42.9331 -88.9297 304° West 335 386 13,500 -960 Descending Chicago Center
11:34AM 42.9294 -89.0303 267° West 274 315 12,000 -2,400 Descending Chicago Center
11:35AM 42.9217 -89.1267 264° West 255 293 8,700 -3,360 Descending Chicago Center
11:36AM 42.9161 -89.2219 265° West 253 291 5,200 -2,880 Descending Chicago Center
11:37AM 42.9600 -89.2992 308° West 236 272 2,900 -1,260 Descending Chicago Center
11:38AM 43.0033 -89.3414 325° Northwest 210 242 2,700 -180 Descending Chicago Center
11:39AM 43.0472 -89.3475 354° North 188 216 2,600 -420 Descending Chicago Center
11:40AM 43.0794 -89.3450 North 147 169 1,900 -720 Descending Chicago Center
11:41AM 43.1111 -89.3442 North 126 145 1,200 -720 Descending Chicago Center
11:43AM 43.1333 -89.3333 North  Level FlightAware Approximate
11:50AM 43.1399 -89.3375 North  Level Estimated